createdAt,value
2018-02-22T07:09:00.536Z,7.03
2018-02-22T07:11:39.638Z,6.40
2018-02-22T07:14:14.680Z,6.60
2018-02-22T07:16:42.915Z,6.60
2018-02-22T07:19:20.095Z,16.08
2018-02-22T07:21:48.155Z,16.70
2018-02-22T07:24:34.022Z,12.80
2018-02-22T07:27:03.953Z,9.20
2018-02-22T07:29:41.862Z,8.73
2018-02-22T07:32:10.518Z,18.30
2018-02-22T07:34:38.956Z,7.97
2018-02-22T07:37:07.606Z,7.53
2018-02-22T07:39:35.991Z,8.20
2018-02-22T07:42:04.253Z,8.10
2018-02-22T07:44:32.539Z,7.93
2018-02-22T07:47:00.813Z,7.93
2018-02-22T07:49:28.951Z,9.57
2018-02-22T07:51:57.222Z,9.63
2018-02-22T07:54:25.522Z,8.00
2018-02-22T07:56:53.896Z,7.47
2018-02-22T07:59:22.794Z,7.87
2018-02-22T08:01:52.114Z,8.40
2018-02-22T08:04:20.669Z,8.23
2018-02-22T08:06:48.846Z,8.13
2018-02-22T08:09:18.228Z,7.80
2018-02-22T08:11:46.667Z,8.50
2018-02-22T08:14:15.078Z,8.10
2018-02-22T08:16:44.189Z,10.60
2018-02-22T08:19:13.080Z,10.73
2018-02-22T08:21:41.192Z,9.00
2018-02-22T08:24:09.220Z,8.33
2018-02-22T08:26:39.024Z,9.27
2018-02-22T08:29:06.928Z,9.67
2018-02-22T08:31:44.196Z,9.60
2018-02-22T08:34:12.530Z,9.17
2018-02-22T08:36:49.228Z,9.17
2018-02-22T08:39:18.139Z,9.70
2018-02-22T08:41:46.174Z,11.13
2018-02-22T08:44:14.818Z,9.40
2018-02-22T08:46:43.238Z,9.10
2018-02-22T08:49:11.967Z,9.53
2018-02-22T08:51:40.275Z,10.07
2018-02-22T08:54:09.069Z,9.37
2018-02-22T08:56:37.236Z,10.53
2018-02-22T08:59:05.430Z,10.10
2018-02-22T09:01:35.407Z,10.17
2018-02-22T09:04:03.621Z,9.90
2018-02-22T09:06:32.023Z,10.17
2018-02-22T09:09:00.506Z,10.03
2018-02-22T09:11:28.996Z,19.03
2018-02-22T09:13:57.384Z,11.63
2018-02-22T09:16:25.512Z,10.90
2018-02-22T09:18:54.396Z,11.77
2018-02-22T09:21:23.855Z,10.80
2018-02-22T09:23:52.018Z,14.50
2018-02-22T09:26:19.995Z,10.70
2018-02-22T09:28:49.997Z,12.03
2018-02-22T09:31:18.398Z,11.17
2018-02-22T09:33:46.536Z,13.77
2018-02-22T09:36:14.737Z,11.70
2018-02-22T09:38:50.836Z,10.90
2018-02-22T09:41:19.117Z,10.70
2018-02-22T09:43:47.003Z,10.67
2018-02-22T09:46:15.298Z,12.10
2018-02-22T09:48:44.354Z,10.70
2018-02-22T09:51:12.556Z,11.27
2018-02-22T09:53:40.676Z,11.93
2018-02-22T09:56:08.770Z,12.27
2018-02-22T09:58:36.910Z,11.20
2018-02-22T10:01:05.306Z,11.03
2018-02-22T10:03:34.407Z,10.60
2018-02-22T10:06:03.956Z,11.83
2018-02-22T10:08:32.038Z,10.87
2018-02-22T10:11:00.509Z,11.13
2018-02-22T10:13:28.981Z,11.77
2018-02-22T10:15:57.006Z,12.05
2018-02-22T10:18:25.466Z,11.33
2018-02-22T10:20:53.626Z,11.77
2018-02-22T10:23:21.829Z,11.93
2018-02-22T10:25:50.929Z,12.33
2018-02-22T10:28:19.286Z,14.03
2018-02-22T10:30:47.711Z,14.17
2018-02-22T10:33:15.935Z,11.67
2018-02-22T10:35:44.047Z,12.10
2018-02-22T10:38:12.592Z,13.50
2018-02-22T10:43:20.785Z,11.80
2018-02-22T10:45:49.844Z,12.23
2018-02-22T10:48:19.242Z,12.67
2018-02-22T10:50:47.483Z,12.63
2018-02-22T10:53:16.178Z,12.70
2018-02-22T10:55:44.451Z,13.20
2018-02-22T10:58:12.921Z,11.90
2018-02-22T11:00:41.060Z,11.73
2018-02-22T11:03:10.320Z,12.97
2018-02-22T11:05:38.685Z,13.60
2018-02-22T11:08:06.969Z,12.67
2018-02-22T11:10:35.022Z,12.17
2018-02-22T11:13:03.804Z,13.77
2018-02-22T11:15:32.173Z,13.63
2018-02-22T11:18:00.655Z,12.67
2018-02-22T11:20:29.210Z,13.03
2018-02-22T11:22:57.478Z,14.27
2018-02-22T11:25:26.187Z,12.90
2018-02-22T11:27:54.339Z,14.47
2018-02-22T11:30:23.148Z,13.30
2018-02-22T11:32:51.637Z,12.50
2018-02-22T11:35:19.808Z,13.33
2018-02-22T11:37:48.069Z,14.03
2018-02-22T11:40:16.364Z,12.83
2018-02-22T11:42:51.324Z,14.30
2018-02-22T11:45:19.727Z,13.30
2018-02-22T11:47:47.874Z,14.37
2018-02-22T11:50:16.402Z,12.57
2018-02-22T11:52:45.563Z,12.53
2018-02-22T11:55:14.295Z,13.60
2018-02-22T11:57:42.618Z,13.20
2018-02-22T12:00:11.032Z,12.63
2018-02-22T12:02:39.441Z,12.13
2018-02-22T12:05:07.642Z,12.27
2018-02-22T12:07:35.802Z,11.90
2018-02-22T12:10:04.260Z,12.87
2018-02-22T12:12:33.080Z,13.07
2018-02-22T12:15:01.122Z,13.93
2018-02-22T12:17:29.096Z,13.67
2018-02-22T12:19:57.329Z,14.37
2018-02-22T12:22:25.221Z,15.20
2018-02-22T12:24:53.141Z,13.23
2018-02-22T12:27:21.439Z,13.40
2018-02-22T12:29:49.421Z,19.87
2018-02-22T12:32:17.491Z,14.27
2018-02-22T12:34:46.246Z,13.67
2018-02-22T12:37:15.397Z,13.67
2018-02-22T12:39:43.740Z,14.27
2018-02-22T12:42:12.185Z,14.20
2018-02-22T12:44:49.574Z,14.00
2018-02-22T12:47:18.345Z,14.17
2018-02-22T12:49:47.121Z,15.93
2018-02-22T12:52:16.445Z,14.70
2018-02-22T12:54:44.604Z,17.30
2018-02-22T12:57:12.465Z,15.53
2018-02-22T12:59:40.404Z,15.40
2018-02-22T13:02:09.485Z,17.10
2018-02-22T13:04:38.504Z,17.23
2018-02-22T13:07:06.904Z,17.33
2018-02-22T13:09:35.344Z,16.63
2018-02-22T13:12:04.373Z,15.70
2018-02-22T13:14:32.305Z,19.20
2018-02-22T13:17:01.244Z,18.33
2018-02-22T13:19:29.868Z,18.73
2018-02-22T13:21:57.929Z,19.33
2018-02-22T13:24:26.255Z,21.67
2018-02-22T13:26:54.682Z,17.70
2018-02-22T13:29:22.635Z,17.57
2018-02-22T13:31:51.027Z,22.07
2018-02-22T13:34:19.187Z,22.43
2018-02-22T13:36:47.166Z,21.50
2018-02-22T13:39:15.287Z,18.33
2018-02-22T13:41:43.503Z,19.00
2018-02-22T13:44:11.823Z,18.77
2018-02-22T13:46:42.244Z,20.33
2018-02-22T13:49:10.363Z,21.47
2018-02-22T13:51:38.725Z,21.97
2018-02-22T13:54:06.906Z,17.57
2018-02-22T13:56:34.850Z,20.27
2018-02-22T13:59:02.813Z,19.07
2018-02-22T14:01:31.147Z,19.63
2018-02-22T14:03:59.228Z,23.80
2018-02-22T14:06:28.105Z,18.60
2018-02-22T14:08:55.970Z,19.40
2018-02-22T14:11:23.783Z,19.13
2018-02-22T14:13:51.951Z,18.47
2018-02-22T14:16:20.050Z,20.27
2018-02-22T14:18:48.336Z,19.50
2018-02-22T14:21:16.633Z,21.13
2018-02-22T14:23:45.031Z,19.17
2018-02-22T14:26:13.178Z,19.03
2018-02-22T14:28:41.550Z,20.33
2018-02-22T14:31:09.512Z,16.97
2018-02-22T14:33:37.902Z,18.20
2018-02-22T14:36:07.000Z,20.10
2018-02-22T14:38:34.998Z,17.43
2018-02-22T14:41:03.348Z,17.87
2018-02-22T14:46:10.317Z,21.13
2018-02-22T14:48:38.625Z,18.20
2018-02-22T14:51:07.159Z,19.10
2018-02-22T14:53:35.133Z,19.70
2018-02-22T14:56:02.941Z,18.43
2018-02-22T14:58:31.253Z,18.23
2018-02-22T15:00:59.312Z,19.27
2018-02-22T15:03:27.512Z,18.13
2018-02-22T15:05:55.497Z,18.13
2018-02-22T15:08:23.674Z,20.30
2018-02-22T15:10:52.025Z,19.40
2018-02-22T15:13:20.461Z,18.37
2018-02-22T15:15:48.341Z,19.43
2018-02-22T15:18:16.260Z,18.17
2018-02-22T15:20:44.898Z,17.77
2018-02-22T15:23:12.765Z,19.93
2018-02-22T15:25:42.049Z,17.80
2018-02-22T15:28:09.964Z,20.63
2018-02-22T15:30:38.235Z,18.67
2018-02-22T15:33:06.512Z,18.47
2018-02-22T15:35:40.675Z,17.43
2018-02-22T15:38:09.714Z,17.45
2018-02-22T15:40:37.894Z,18.77
2018-02-22T15:43:05.873Z,19.20
2018-02-22T15:45:33.752Z,17.33
2018-02-22T15:48:01.953Z,17.40
2018-02-22T15:50:30.534Z,19.10
2018-02-22T15:52:58.833Z,15.80
2018-02-22T15:55:26.873Z,15.40
2018-02-22T15:57:54.941Z,14.60
2018-02-22T16:00:22.882Z,19.13
2018-02-22T16:02:50.932Z,14.83
